SAE45 KSEA-KBOS
Flight info
| Callsign | SAE45 |
|---|---|
| Flight time | N/A |
| Altitude | 39000 |
| Route | MONTN2 SEA ZADON ZELAK ZIRAN ZAXBY BLOWS GTF COKEE WILTN Q140 TTAIL SNARG RUBKI Q140 AHPAH GONZZ PONCT JFUND2 |
| Aircraft | B789/H-SDE1E2E3FGHIJ2J3J4J5M1RWXY/LB1D1 |
Departure
| Time | N/A |
|---|---|
| Airport | Seattle–Tacoma International Airport (KSEA) |
Arrival
| Time | 2026-05-04 00:05 |
|---|---|
| Airport | Boston Logan International Airport (KBOS) |
| Time | Latitude | Longitude | Altitude | Speed | Heading |
|---|---|---|---|---|---|
| 2026-05-03 20:15 | 47.40154 | -112.62679 | 38948 ft | 480 kts | 83° |
| 2026-05-03 20:15 | 47.40595 | -112.52840 | 38956 ft | 482 kts | 83° |
| 2026-05-03 20:16 | 47.41028 | -112.42965 | 38941 ft | 482 kts | 83° |
| 2026-05-03 20:16 | 47.41453 | -112.33099 | 38935 ft | 481 kts | 83° |
| 2026-05-03 20:17 | 47.41869 | -112.23240 | 38932 ft | 481 kts | 83° |
| 2026-05-03 20:17 | 47.42276 | -112.13382 | 38925 ft | 482 kts | 83° |
| 2026-05-03 20:18 | 47.42677 | -112.03493 | 38934 ft | 483 kts | 83° |
| 2026-05-03 20:18 | 47.43068 | -111.93588 | 38922 ft | 484 kts | 83° |
| 2026-05-03 20:19 | 47.43453 | -111.83668 | 38922 ft | 484 kts | 83° |
| 2026-05-03 20:19 | 47.43828 | -111.73753 | 38912 ft | 484 kts | 83° |
| 2026-05-03 20:20 | 47.44196 | -111.63819 | 38904 ft | 484 kts | 83° |
| 2026-05-03 20:20 | 47.44554 | -111.53897 | 38939 ft | 483 kts | 83° |
| 2026-05-03 20:21 | 47.44902 | -111.44003 | 38942 ft | 482 kts | 83° |
| 2026-05-03 20:21 | 47.45007 | -111.34156 | 38940 ft | 484 kts | 86° |
| 2026-05-03 20:22 | 47.45044 | -111.24192 | 38948 ft | 487 kts | 86° |
| 2026-05-03 20:22 | 47.45046 | -111.14179 | 38941 ft | 487 kts | 86° |
| 2026-05-03 20:23 | 47.45050 | -111.05797 | 38932 ft | 486 kts | 86° |
| 2026-05-03 20:23 | 47.45046 | -110.95822 | 38920 ft | 485 kts | 86° |
| 2026-05-03 20:24 | 47.45031 | -110.85865 | 38910 ft | 484 kts | 86° |
| 2026-05-03 20:24 | 47.45010 | -110.75916 | 38907 ft | 485 kts | 86° |
| 2026-05-03 20:25 | 47.44978 | -110.65935 | 38911 ft | 487 kts | 86° |
| 2026-05-03 20:25 | 47.44938 | -110.55924 | 38906 ft | 487 kts | 86° |
| 2026-05-03 20:26 | 47.44890 | -110.45991 | 38899 ft | 486 kts | 86° |
| 2026-05-03 20:26 | 47.44833 | -110.36008 | 38890 ft | 486 kts | 86° |
| 2026-05-03 20:27 | 47.44767 | -110.26033 | 38892 ft | 486 kts | 86° |
| 2026-05-03 20:27 | 47.44693 | -110.16063 | 38877 ft | 485 kts | 86° |
| 2026-05-03 20:28 | 47.44610 | -110.06091 | 38888 ft | 485 kts | 87° |
| 2026-05-03 20:28 | 47.44518 | -109.96111 | 38879 ft | 487 kts | 87° |
| 2026-05-03 20:29 | 47.44418 | -109.86075 | 38876 ft | 490 kts | 87° |
| 2026-05-03 20:29 | 47.44306 | -109.76005 | 38885 ft | 490 kts | 87° |
| 2026-05-03 20:30 | 47.44188 | -109.65942 | 38868 ft | 490 kts | 87° |
| 2026-05-03 20:30 | 47.44060 | -109.55871 | 38878 ft | 491 kts | 87° |
| 2026-05-03 20:31 | 47.43924 | -109.45786 | 38863 ft | 492 kts | 87° |
| 2026-05-03 20:31 | 47.43777 | -109.35658 | 38872 ft | 493 kts | 87° |
| 2026-05-03 20:32 | 47.43621 | -109.25537 | 38854 ft | 492 kts | 87° |
| 2026-05-03 20:32 | 47.43459 | -109.15463 | 38852 ft | 490 kts | 87° |
| 2026-05-03 20:33 | 47.43287 | -109.05401 | 38861 ft | 491 kts | 87° |
| 2026-05-03 20:33 | 47.43106 | -108.95285 | 38846 ft | 494 kts | 87° |
| 2026-05-03 20:34 | 47.42913 | -108.85137 | 38848 ft | 494 kts | 87° |
| 2026-05-03 20:34 | 47.42714 | -108.74994 | 38847 ft | 494 kts | 88° |
| 2026-05-03 20:35 | 47.42504 | -108.64844 | 38849 ft | 494 kts | 88° |
| 2026-05-03 20:35 | 47.42287 | -108.54682 | 38842 ft | 497 kts | 88° |
| 2026-05-03 20:36 | 47.42058 | -108.44494 | 38839 ft | 496 kts | 88° |
| 2026-05-03 20:36 | 47.41821 | -108.34305 | 38841 ft | 496 kts | 88° |
| 2026-05-03 20:37 | 47.41575 | -108.24130 | 38836 ft | 496 kts | 88° |
| 2026-05-03 20:37 | 47.41320 | -108.13950 | 38839 ft | 497 kts | 88° |
| 2026-05-03 20:38 | 47.41056 | -108.03723 | 38850 ft | 499 kts | 88° |
| 2026-05-03 20:38 | 47.40780 | -107.93480 | 38850 ft | 499 kts | 88° |
| 2026-05-03 20:39 | 47.40497 | -107.83228 | 38858 ft | 500 kts | 88° |
| 2026-05-03 20:39 | 47.40203 | -107.72998 | 38849 ft | 498 kts | 88° |
| 2026-05-03 20:40 | 47.39904 | -107.62826 | 38855 ft | 501 kts | 88° |
| 2026-05-03 20:40 | 47.39591 | -107.52556 | 38859 ft | 501 kts | 89° |
| 2026-05-03 20:41 | 47.39269 | -107.42274 | 38864 ft | 501 kts | 89° |
| 2026-05-03 20:41 | 47.38938 | -107.31998 | 38874 ft | 502 kts | 89° |
| 2026-05-03 20:42 | 47.38598 | -107.21699 | 38876 ft | 504 kts | 89° |
| 2026-05-03 20:42 | 47.38247 | -107.11381 | 38879 ft | 503 kts | 89° |
| 2026-05-03 20:43 | 47.37888 | -107.01091 | 38875 ft | 501 kts | 89° |
| 2026-05-03 20:43 | 47.37521 | -106.90848 | 38872 ft | 498 kts | 89° |
| 2026-05-03 20:44 | 47.37264 | -106.80631 | 38865 ft | 500 kts | 88° |
| 2026-05-03 20:44 | 47.36989 | -106.70327 | 38874 ft | 503 kts | 88° |
| 2026-05-03 20:45 | 47.36773 | -106.60030 | 38873 ft | 502 kts | 88° |
| 2026-05-03 20:45 | 47.36515 | -106.49746 | 38866 ft | 502 kts | 88° |
| 2026-05-03 20:46 | 47.36262 | -106.39470 | 38860 ft | 501 kts | 88° |
| 2026-05-03 20:46 | 47.35997 | -106.29219 | 38847 ft | 500 kts | 88° |
| 2026-05-03 20:47 | 47.35721 | -106.18968 | 38850 ft | 500 kts | 88° |
| 2026-05-03 20:47 | 47.35439 | -106.08698 | 38850 ft | 502 kts | 88° |
| 2026-05-03 20:48 | 47.35143 | -105.98389 | 38861 ft | 504 kts | 88° |
| 2026-05-03 20:48 | 47.34840 | -105.88052 | 38855 ft | 506 kts | 89° |
| 2026-05-03 20:49 | 47.34524 | -105.77695 | 38850 ft | 505 kts | 89° |
| 2026-05-03 20:49 | 47.34202 | -105.67366 | 38844 ft | 503 kts | 89° |
| 2026-05-03 20:50 | 47.33873 | -105.57138 | 38837 ft | 502 kts | 89° |
| 2026-05-03 20:50 | 47.33533 | -105.46847 | 38850 ft | 505 kts | 89° |
| 2026-05-03 20:51 | 47.33181 | -105.36496 | 38846 ft | 506 kts | 89° |
| 2026-05-03 20:51 | 47.32820 | -105.26132 | 38846 ft | 507 kts | 89° |
| 2026-05-03 20:52 | 47.32449 | -105.15759 | 38840 ft | 507 kts | 89° |
| 2026-05-03 20:52 | 47.32069 | -105.05397 | 38832 ft | 507 kts | 89° |
| 2026-05-03 20:53 | 47.31679 | -104.95015 | 38840 ft | 507 kts | 89° |
| 2026-05-03 20:53 | 47.31279 | -104.84640 | 38841 ft | 507 kts | 89° |
| 2026-05-03 20:54 | 47.30870 | -104.74264 | 38846 ft | 507 kts | 89° |
| 2026-05-03 20:54 | 47.30240 | -104.58699 | 38845 ft | 508 kts | 89° |
| 2026-05-03 20:55 | 47.29806 | -104.48297 | 38837 ft | 509 kts | 89° |
| 2026-05-03 20:55 | 47.29363 | -104.37911 | 38833 ft | 508 kts | 89° |
| 2026-05-03 20:56 | 47.28912 | -104.27540 | 38831 ft | 507 kts | 89° |
| 2026-05-03 20:56 | 47.28452 | -104.17174 | 38832 ft | 509 kts | 89° |
| 2026-05-03 20:57 | 47.27981 | -104.06774 | 38840 ft | 509 kts | 89° |
| 2026-05-03 20:57 | 47.27499 | -103.96367 | 38834 ft | 510 kts | 89° |
| 2026-05-03 20:58 | 47.27009 | -103.85957 | 38826 ft | 510 kts | 90° |
| 2026-05-03 20:58 | 47.26509 | -103.75553 | 38840 ft | 510 kts | 90° |
| 2026-05-03 20:59 | 47.25998 | -103.65130 | 38820 ft | 511 kts | 90° |
| 2026-05-03 20:59 | 47.25478 | -103.54710 | 38821 ft | 510 kts | 90° |
| 2026-05-03 21:00 | 47.25129 | -103.47809 | 38820 ft | 510 kts | 90° |
| 2026-05-03 21:00 | 47.24410 | -103.33881 | 38839 ft | 510 kts | 90° |
| 2026-05-03 21:01 | 47.23862 | -103.23444 | 38807 ft | 511 kts | 90° |
| 2026-05-03 21:01 | 47.23304 | -103.13070 | 38798 ft | 508 kts | 90° |
| 2026-05-03 21:02 | 47.22742 | -103.02707 | 38798 ft | 509 kts | 90° |
| 2026-05-03 21:02 | 47.22166 | -102.92331 | 38798 ft | 509 kts | 90° |
| 2026-05-03 21:03 | 47.21586 | -102.82004 | 38805 ft | 511 kts | 90° |
| 2026-05-03 21:03 | 47.20989 | -102.71600 | 38799 ft | 511 kts | 90° |
| 2026-05-03 21:04 | 47.20385 | -102.61203 | 38793 ft | 510 kts | 90° |
| 2026-05-03 21:04 | 47.19772 | -102.50819 | 38795 ft | 509 kts | 91° |
| 2026-05-03 21:05 | 47.19150 | -102.40431 | 38795 ft | 511 kts | 91° |
| 2026-05-03 21:05 | 47.18515 | -102.30011 | 38794 ft | 512 kts | 91° |
| 2026-05-03 21:06 | 47.17870 | -102.19582 | 38798 ft | 512 kts | 91° |
| 2026-05-03 21:06 | 47.17217 | -102.09160 | 38796 ft | 512 kts | 91° |
| 2026-05-03 21:07 | 47.16553 | -101.98750 | 38787 ft | 511 kts | 91° |
| 2026-05-03 21:07 | 47.15884 | -101.88382 | 38772 ft | 509 kts | 91° |
| 2026-05-03 21:08 | 47.15206 | -101.78021 | 38762 ft | 510 kts | 91° |
| 2026-05-03 21:08 | 47.14522 | -101.67721 | 38759 ft | 510 kts | 91° |
| 2026-05-03 21:09 | 47.13824 | -101.57355 | 38764 ft | 511 kts | 91° |
| 2026-05-03 21:09 | 47.13115 | -101.46975 | 38770 ft | 510 kts | 91° |
| 2026-05-03 21:10 | 47.12398 | -101.36607 | 38773 ft | 510 kts | 91° |
| 2026-05-03 21:10 | 47.11791 | -101.27936 | 38776 ft | 510 kts | 91° |
| 2026-05-03 21:11 | 47.11063 | -101.17660 | 38787 ft | 509 kts | 91° |
| 2026-05-03 21:11 | 47.10320 | -101.07306 | 38784 ft | 510 kts | 92° |
| 2026-05-03 21:12 | 47.09568 | -100.96965 | 38783 ft | 509 kts | 92° |
| 2026-05-03 21:12 | 47.08808 | -100.86630 | 38780 ft | 510 kts | 92° |
| 2026-05-03 21:13 | 47.08036 | -100.76290 | 38775 ft | 509 kts | 92° |
| 2026-05-03 21:13 | 47.07227 | -100.65974 | 38782 ft | 509 kts | 92° |
| 2026-05-03 21:14 | 47.06422 | -100.55667 | 38791 ft | 509 kts | 92° |
| 2026-05-03 21:14 | 47.05602 | -100.45356 | 38792 ft | 509 kts | 93° |
| 2026-05-03 21:15 | 47.04775 | -100.35049 | 38791 ft | 509 kts | 93° |
| 2026-05-03 21:15 | 47.03938 | -100.24739 | 38789 ft | 510 kts | 93° |
| 2026-05-03 21:16 | 47.03088 | -100.14414 | 38791 ft | 510 kts | 93° |
| 2026-05-03 21:16 | 47.02231 | -100.04083 | 38793 ft | 511 kts | 93° |
| 2026-05-03 21:17 | 47.01362 | -99.93746 | 38792 ft | 511 kts | 93° |
| 2026-05-03 21:17 | 47.00485 | -99.83412 | 38787 ft | 512 kts | 94° |
| 2026-05-03 21:18 | 46.99594 | -99.73057 | 38789 ft | 512 kts | 94° |
| 2026-05-03 21:18 | 46.98698 | -99.62723 | 38786 ft | 512 kts | 94° |
| 2026-05-03 21:19 | 46.97791 | -99.52396 | 38780 ft | 510 kts | 94° |
| 2026-05-03 21:19 | 46.96880 | -99.42109 | 38785 ft | 510 kts | 94° |
| 2026-05-03 21:20 | 46.95963 | -99.31866 | 38789 ft | 512 kts | 95° |
| 2026-05-03 21:20 | 46.95026 | -99.21520 | 38793 ft | 513 kts | 95° |
| 2026-05-03 21:21 | 46.94080 | -99.11179 | 38784 ft | 512 kts | 95° |
| 2026-05-03 21:21 | 46.93129 | -99.00880 | 38777 ft | 511 kts | 95° |
| 2026-05-03 21:22 | 46.92167 | -98.90569 | 38768 ft | 512 kts | 95° |
| 2026-05-03 21:22 | 46.91195 | -98.80253 | 38752 ft | 512 kts | 95° |
| 2026-05-03 21:23 | 46.90212 | -98.69933 | 38755 ft | 512 kts | 95° |
| 2026-05-03 21:23 | 46.89221 | -98.59618 | 38771 ft | 512 kts | 95° |
| 2026-05-03 21:24 | 46.88219 | -98.49285 | 38768 ft | 514 kts | 95° |
| 2026-05-03 21:24 | 46.87204 | -98.38937 | 38767 ft | 515 kts | 96° |
| 2026-05-03 21:25 | 46.86188 | -98.28658 | 38756 ft | 514 kts | 96° |
| 2026-05-03 21:25 | 46.85157 | -98.18341 | 38752 ft | 513 kts | 96° |
| 2026-05-03 21:26 | 46.84118 | -98.08022 | 38759 ft | 514 kts | 96° |
| 2026-05-03 21:26 | 46.83067 | -97.97694 | 38762 ft | 515 kts | 96° |
| 2026-05-03 21:27 | 46.82006 | -97.87353 | 38760 ft | 516 kts | 96° |
| 2026-05-03 21:27 | 46.80933 | -97.77001 | 38770 ft | 516 kts | 96° |
| 2026-05-03 21:28 | 46.79849 | -97.66634 | 38774 ft | 516 kts | 96° |
| 2026-05-03 21:28 | 46.78758 | -97.56295 | 38788 ft | 515 kts | 96° |
| 2026-05-03 21:29 | 46.77660 | -97.45980 | 38775 ft | 514 kts | 97° |
| 2026-05-03 21:29 | 46.76557 | -97.35701 | 38777 ft | 512 kts | 97° |
| 2026-05-03 21:30 | 46.75444 | -97.25421 | 38777 ft | 515 kts | 97° |
| 2026-05-03 21:30 | 46.74316 | -97.15104 | 38767 ft | 516 kts | 97° |
| 2026-05-03 21:31 | 46.73179 | -97.04788 | 38762 ft | 516 kts | 97° |
| 2026-05-03 21:31 | 46.72039 | -96.94525 | 38761 ft | 516 kts | 97° |
| 2026-05-03 21:32 | 46.70880 | -96.84185 | 38762 ft | 518 kts | 97° |
| 2026-05-03 21:32 | 46.69708 | -96.73825 | 38760 ft | 518 kts | 97° |
| 2026-05-03 21:33 | 46.68635 | -96.63462 | 38758 ft | 517 kts | 96° |
| 2026-05-03 21:33 | 46.67542 | -96.53117 | 38777 ft | 517 kts | 96° |
| 2026-05-03 21:34 | 46.66516 | -96.42752 | 38788 ft | 518 kts | 96° |
| 2026-05-03 21:34 | 46.65441 | -96.32366 | 38785 ft | 519 kts | 96° |
| 2026-05-03 21:35 | 46.64368 | -96.21977 | 38782 ft | 519 kts | 96° |
| 2026-05-03 21:35 | 46.63285 | -96.11584 | 38774 ft | 520 kts | 96° |
| 2026-05-03 21:36 | 46.62188 | -96.01192 | 38764 ft | 520 kts | 96° |
| 2026-05-03 21:36 | 46.61086 | -95.90800 | 38758 ft | 520 kts | 97° |
| 2026-05-03 21:37 | 46.59971 | -95.80425 | 38762 ft | 519 kts | 97° |
| 2026-05-03 21:37 | 46.58853 | -95.70065 | 38770 ft | 519 kts | 97° |
| 2026-05-03 21:38 | 46.57721 | -95.59708 | 38791 ft | 520 kts | 97° |
| 2026-05-03 21:38 | 46.56580 | -95.49330 | 38788 ft | 520 kts | 97° |
| 2026-05-03 21:39 | 46.55434 | -95.39015 | 38783 ft | 521 kts | 97° |
| 2026-05-03 21:39 | 46.54272 | -95.28632 | 38779 ft | 521 kts | 97° |
| 2026-05-03 21:40 | 46.53099 | -95.18241 | 38774 ft | 522 kts | 97° |
| 2026-05-03 21:40 | 46.51915 | -95.07843 | 38776 ft | 522 kts | 97° |
| 2026-05-03 21:41 | 46.50721 | -94.97448 | 38779 ft | 522 kts | 97° |
| 2026-05-03 21:41 | 46.49519 | -94.87064 | 38780 ft | 522 kts | 97° |
| 2026-05-03 21:42 | 46.48306 | -94.76673 | 38778 ft | 523 kts | 97° |
| 2026-05-03 21:42 | 46.47082 | -94.66274 | 38764 ft | 523 kts | 98° |
| 2026-05-03 21:43 | 46.45847 | -94.55871 | 38759 ft | 524 kts | 98° |
| 2026-05-03 21:43 | 46.44603 | -94.45464 | 38760 ft | 524 kts | 98° |
| 2026-05-03 21:44 | 46.43347 | -94.35053 | 38774 ft | 525 kts | 98° |
| 2026-05-03 21:44 | 46.42081 | -94.24635 | 38779 ft | 525 kts | 98° |
| 2026-05-03 21:45 | 46.40806 | -94.14229 | 38782 ft | 524 kts | 98° |
| 2026-05-03 21:45 | 46.39523 | -94.03838 | 38765 ft | 524 kts | 98° |
| 2026-05-03 21:46 | 46.38232 | -93.93460 | 38771 ft | 524 kts | 98° |
| 2026-05-03 21:46 | 46.36931 | -93.83086 | 38772 ft | 524 kts | 98° |
| 2026-05-03 21:47 | 46.35621 | -93.72719 | 38777 ft | 523 kts | 98° |
| 2026-05-03 21:47 | 46.34302 | -93.62363 | 38776 ft | 523 kts | 98° |
| 2026-05-03 21:48 | 46.32973 | -93.52005 | 38773 ft | 523 kts | 98° |
| 2026-05-03 21:48 | 46.31637 | -93.41667 | 38759 ft | 523 kts | 98° |
| 2026-05-03 21:49 | 46.30289 | -93.31314 | 38769 ft | 524 kts | 98° |
| 2026-05-03 21:49 | 46.28929 | -93.20951 | 38773 ft | 525 kts | 99° |
| 2026-05-03 21:50 | 46.27556 | -93.10564 | 38777 ft | 526 kts | 99° |
| 2026-05-03 21:50 | 46.26182 | -93.00244 | 38769 ft | 526 kts | 99° |
| 2026-05-03 21:51 | 46.24784 | -92.89812 | 38768 ft | 525 kts | 99° |
| 2026-05-03 21:51 | 46.23394 | -92.79527 | 38767 ft | 525 kts | 99° |
| 2026-05-03 21:52 | 46.21986 | -92.69175 | 38763 ft | 525 kts | 99° |
| 2026-05-03 21:52 | 46.20571 | -92.58850 | 38760 ft | 524 kts | 99° |
| 2026-05-03 21:53 | 46.19149 | -92.48544 | 38758 ft | 523 kts | 99° |
| 2026-05-03 21:53 | 46.17719 | -92.38251 | 38760 ft | 523 kts | 99° |
| 2026-05-03 21:54 | 46.16277 | -92.27947 | 38756 ft | 524 kts | 99° |
| 2026-05-03 21:54 | 46.14825 | -92.17639 | 38743 ft | 525 kts | 99° |
| 2026-05-03 21:55 | 46.13362 | -92.07331 | 38749 ft | 525 kts | 99° |
| 2026-05-03 21:55 | 46.11891 | -91.97031 | 38748 ft | 525 kts | 100° |
| 2026-05-03 21:56 | 46.10410 | -91.86730 | 38738 ft | 525 kts | 100° |
| 2026-05-03 21:56 | 46.08919 | -91.76438 | 38734 ft | 525 kts | 100° |
| 2026-05-03 21:57 | 46.07420 | -91.66154 | 38737 ft | 525 kts | 100° |
| 2026-05-03 21:57 | 46.05911 | -91.55867 | 38732 ft | 526 kts | 100° |
| 2026-05-03 21:58 | 46.04392 | -91.45590 | 38726 ft | 524 kts | 100° |
| 2026-05-03 21:58 | 46.02867 | -91.35334 | 38722 ft | 523 kts | 100° |
| 2026-05-03 21:59 | 46.01336 | -91.25104 | 38720 ft | 524 kts | 100° |
| 2026-05-03 21:59 | 45.99792 | -91.14854 | 38736 ft | 525 kts | 101° |
| 2026-05-03 22:00 | 45.98245 | -91.04654 | 38731 ft | 526 kts | 101° |
| 2026-05-03 22:00 | 45.96662 | -90.94378 | 38715 ft | 527 kts | 101° |
| 2026-05-03 22:01 | 45.95059 | -90.84097 | 38717 ft | 528 kts | 101° |
| 2026-05-03 22:01 | 45.93451 | -90.73797 | 38717 ft | 529 kts | 101° |
| 2026-05-03 22:02 | 45.92092 | -90.65181 | 38711 ft | 527 kts | 101° |
| 2026-05-03 22:02 | 45.90471 | -90.54924 | 38700 ft | 526 kts | 101° |
| 2026-05-03 22:03 | 45.88851 | -90.44764 | 38694 ft | 525 kts | 101° |
| 2026-05-03 22:03 | 45.87214 | -90.34542 | 38705 ft | 526 kts | 101° |
| 2026-05-03 22:04 | 45.85562 | -90.24296 | 38708 ft | 528 kts | 101° |
| 2026-05-03 22:04 | 45.83897 | -90.14031 | 38705 ft | 529 kts | 102° |
| 2026-05-03 22:05 | 45.82221 | -90.03765 | 38708 ft | 528 kts | 102° |
| 2026-05-03 22:05 | 45.80542 | -89.93538 | 38691 ft | 527 kts | 102° |
| 2026-05-03 22:06 | 45.78856 | -89.83330 | 38683 ft | 526 kts | 102° |
| 2026-05-03 22:06 | 45.77162 | -89.73138 | 38671 ft | 526 kts | 102° |
| 2026-05-03 22:07 | 45.75456 | -89.62932 | 38691 ft | 528 kts | 102° |
| 2026-05-03 22:07 | 45.73737 | -89.52711 | 38689 ft | 529 kts | 102° |
| 2026-05-03 22:08 | 45.72005 | -89.42474 | 38689 ft | 529 kts | 102° |
| 2026-05-03 22:08 | 45.70265 | -89.32248 | 38689 ft | 529 kts | 102° |
| 2026-05-03 22:09 | 45.68516 | -89.22032 | 38691 ft | 529 kts | 102° |
| 2026-05-03 22:10 | 45.65881 | -89.06746 | 38682 ft | 527 kts | 102° |
| 2026-05-03 22:10 | 45.64117 | -88.96592 | 38672 ft | 526 kts | 102° |
| 2026-05-03 22:11 | 45.62347 | -88.86453 | 38664 ft | 526 kts | 102° |
| 2026-05-03 22:11 | 45.60564 | -88.76305 | 38685 ft | 528 kts | 102° |
| 2026-05-03 22:12 | 45.58766 | -88.66128 | 38681 ft | 530 kts | 103° |
| 2026-05-03 22:12 | 45.56957 | -88.55944 | 38670 ft | 529 kts | 103° |
| 2026-05-03 22:13 | 45.55150 | -88.45828 | 38667 ft | 530 kts | 103° |
| 2026-05-03 22:13 | 45.53320 | -88.35640 | 38675 ft | 530 kts | 103° |
| 2026-05-03 22:14 | 45.51484 | -88.25483 | 38672 ft | 528 kts | 103° |
| 2026-05-03 22:14 | 45.49644 | -88.15349 | 38668 ft | 528 kts | 103° |
| 2026-05-03 22:15 | 45.47797 | -88.05238 | 38673 ft | 527 kts | 103° |
| 2026-05-03 22:15 | 45.45937 | -87.95109 | 38664 ft | 529 kts | 103° |
| 2026-05-03 22:16 | 45.44062 | -87.84963 | 38659 ft | 530 kts | 103° |
| 2026-05-03 22:16 | 45.42182 | -87.74834 | 38653 ft | 529 kts | 103° |
| 2026-05-03 22:17 | 45.40294 | -87.64720 | 38641 ft | 528 kts | 103° |
| 2026-05-03 22:17 | 45.38402 | -87.54643 | 38643 ft | 527 kts | 103° |
| 2026-05-03 22:18 | 45.36499 | -87.44557 | 38647 ft | 529 kts | 104° |
| 2026-05-03 22:18 | 45.34583 | -87.34454 | 38657 ft | 529 kts | 104° |
| 2026-05-03 22:19 | 45.32657 | -87.24358 | 38669 ft | 529 kts | 104° |
| 2026-05-03 22:19 | 45.30728 | -87.14299 | 38676 ft | 527 kts | 104° |
| 2026-05-03 22:20 | 45.28795 | -87.04266 | 38683 ft | 527 kts | 104° |
| 2026-05-03 22:20 | 45.26850 | -86.94228 | 38684 ft | 528 kts | 104° |
| 2026-05-03 22:21 | 45.24891 | -86.84169 | 38695 ft | 529 kts | 104° |
| 2026-05-03 22:21 | 45.22923 | -86.74117 | 38703 ft | 529 kts | 104° |
| 2026-05-03 22:22 | 45.20946 | -86.64070 | 38703 ft | 529 kts | 105° |
| 2026-05-03 22:22 | 45.18960 | -86.54031 | 38708 ft | 529 kts | 105° |
| 2026-05-03 22:23 | 45.16963 | -86.43985 | 38719 ft | 530 kts | 105° |
| 2026-05-03 22:23 | 45.14952 | -86.33924 | 38714 ft | 531 kts | 105° |
| 2026-05-03 22:24 | 45.12936 | -86.23884 | 38696 ft | 530 kts | 105° |
| 2026-05-03 22:24 | 45.10913 | -86.13860 | 38717 ft | 528 kts | 105° |
| 2026-05-03 22:25 | 45.08890 | -86.03889 | 38708 ft | 527 kts | 105° |
| 2026-05-03 22:25 | 45.06857 | -85.93917 | 38713 ft | 528 kts | 105° |
| 2026-05-03 22:26 | 45.04812 | -85.83938 | 38713 ft | 529 kts | 105° |
| 2026-05-03 22:26 | 45.02768 | -85.74012 | 38718 ft | 530 kts | 105° |
| 2026-05-03 22:27 | 45.00697 | -85.64008 | 38722 ft | 530 kts | 106° |
| 2026-05-03 22:27 | 44.98624 | -85.54037 | 38723 ft | 528 kts | 106° |
| 2026-05-03 22:28 | 44.96548 | -85.44105 | 38717 ft | 527 kts | 106° |
| 2026-05-03 22:28 | 44.94464 | -85.34179 | 38727 ft | 528 kts | 106° |
| 2026-05-03 22:29 | 44.92367 | -85.24244 | 38731 ft | 529 kts | 106° |
| 2026-05-03 22:29 | 44.90259 | -85.14303 | 38727 ft | 529 kts | 106° |
| 2026-05-03 22:30 | 44.88143 | -85.04372 | 38735 ft | 529 kts | 106° |
| 2026-05-03 22:30 | 44.86017 | -84.94440 | 38746 ft | 530 kts | 107° |
| 2026-05-03 22:31 | 44.83875 | -84.84486 | 38758 ft | 531 kts | 107° |
| 2026-05-03 22:31 | 44.81725 | -84.74539 | 38753 ft | 530 kts | 107° |
| 2026-05-03 22:32 | 44.79574 | -84.64634 | 38748 ft | 529 kts | 107° |
| 2026-05-03 22:32 | 44.77413 | -84.54729 | 38755 ft | 530 kts | 107° |
| 2026-05-03 22:33 | 44.75240 | -84.44815 | 38765 ft | 530 kts | 107° |
| 2026-05-03 22:33 | 44.73056 | -84.34900 | 38788 ft | 531 kts | 107° |
| 2026-05-03 22:34 | 44.70861 | -84.24983 | 38784 ft | 532 kts | 107° |
| 2026-05-03 22:34 | 44.68661 | -84.15085 | 38787 ft | 529 kts | 107° |
| 2026-05-03 22:35 | 44.66460 | -84.05234 | 38779 ft | 528 kts | 107° |
| 2026-05-03 22:35 | 44.64252 | -83.95392 | 38779 ft | 529 kts | 107° |
| 2026-05-03 22:36 | 44.62030 | -83.85538 | 38785 ft | 529 kts | 107° |
| 2026-05-03 22:36 | 44.59802 | -83.75697 | 38787 ft | 529 kts | 107° |
| 2026-05-03 22:37 | 44.57568 | -83.65878 | 38790 ft | 528 kts | 108° |
| 2026-05-03 22:37 | 44.55328 | -83.56077 | 38785 ft | 528 kts | 108° |
| 2026-05-03 22:38 | 44.53086 | -83.46309 | 38782 ft | 526 kts | 108° |
| 2026-05-03 22:38 | 44.50832 | -83.36531 | 38763 ft | 527 kts | 108° |
| 2026-05-03 22:39 | 44.48569 | -83.26761 | 38768 ft | 528 kts | 108° |
| 2026-05-03 22:39 | 44.46292 | -83.16974 | 38771 ft | 529 kts | 108° |
| 2026-05-03 22:40 | 44.44006 | -83.07193 | 38771 ft | 528 kts | 108° |
| 2026-05-03 22:40 | 44.41732 | -82.97501 | 38765 ft | 527 kts | 108° |
| 2026-05-03 22:41 | 44.39442 | -82.87786 | 38766 ft | 526 kts | 108° |
| 2026-05-03 22:41 | 44.37142 | -82.78076 | 38767 ft | 527 kts | 108° |
| 2026-05-03 22:42 | 44.34832 | -82.68360 | 38774 ft | 527 kts | 109° |
| 2026-05-03 22:42 | 44.32513 | -82.58652 | 38775 ft | 527 kts | 109° |
| 2026-05-03 22:43 | 44.30188 | -82.48958 | 38775 ft | 526 kts | 109° |
| 2026-05-03 22:43 | 44.27856 | -82.39279 | 38775 ft | 526 kts | 109° |
| 2026-05-03 22:44 | 44.25516 | -82.29607 | 38772 ft | 526 kts | 109° |
| 2026-05-03 22:44 | 44.23508 | -82.19816 | 38776 ft | 526 kts | 104° |
| 2026-05-03 22:45 | 44.21650 | -82.09931 | 38779 ft | 528 kts | 105° |
| 2026-05-03 22:45 | 44.19745 | -82.00048 | 38783 ft | 528 kts | 105° |
| 2026-05-03 22:46 | 44.17857 | -81.90150 | 38787 ft | 528 kts | 105° |
| 2026-05-03 22:46 | 44.15956 | -81.80338 | 38810 ft | 528 kts | 105° |
| 2026-05-03 22:47 | 44.14045 | -81.70459 | 38808 ft | 528 kts | 105° |
| 2026-05-03 22:47 | 44.12119 | -81.60592 | 38821 ft | 528 kts | 105° |
| 2026-05-03 22:48 | 44.10187 | -81.50726 | 38817 ft | 529 kts | 105° |
| 2026-05-03 22:48 | 44.08241 | -81.40847 | 38825 ft | 529 kts | 105° |
| 2026-05-03 22:49 | 44.06287 | -81.30973 | 38836 ft | 530 kts | 105° |
| 2026-05-03 22:49 | 44.04324 | -81.21099 | 38844 ft | 529 kts | 106° |
| 2026-05-03 22:50 | 44.02688 | -81.12917 | 38848 ft | 528 kts | 106° |
| 2026-05-03 22:50 | 44.00716 | -81.03087 | 38843 ft | 528 kts | 106° |
| 2026-05-03 22:51 | 43.98737 | -80.93279 | 38837 ft | 527 kts | 106° |
| 2026-05-03 22:51 | 43.96750 | -80.83474 | 38851 ft | 528 kts | 106° |
| 2026-05-03 22:52 | 43.94754 | -80.73675 | 38856 ft | 528 kts | 106° |
| 2026-05-03 22:52 | 43.92748 | -80.63876 | 38855 ft | 528 kts | 106° |
| 2026-05-03 22:53 | 43.90733 | -80.54080 | 38867 ft | 528 kts | 106° |
| 2026-05-03 22:53 | 43.88707 | -80.44277 | 38875 ft | 530 kts | 107° |
| 2026-05-03 22:54 | 43.86668 | -80.34454 | 38876 ft | 530 kts | 107° |
| 2026-05-03 22:54 | 43.84621 | -80.24646 | 38879 ft | 529 kts | 107° |
| 2026-05-03 22:55 | 43.82570 | -80.14863 | 38871 ft | 528 kts | 107° |
| 2026-05-03 22:55 | 43.80517 | -80.05118 | 38868 ft | 526 kts | 107° |
| 2026-05-03 22:56 | 43.78458 | -79.95406 | 38863 ft | 526 kts | 107° |
| 2026-05-03 22:56 | 43.76370 | -79.85669 | 38862 ft | 529 kts | 107° |
| 2026-05-03 22:57 | 43.74276 | -79.75904 | 38864 ft | 530 kts | 107° |
| 2026-05-03 22:57 | 43.72185 | -79.66226 | 38856 ft | 528 kts | 107° |
| 2026-05-03 22:58 | 43.70082 | -79.56525 | 38853 ft | 526 kts | 107° |
| 2026-05-03 22:58 | 43.67974 | -79.46847 | 38855 ft | 527 kts | 107° |
| 2026-05-03 22:59 | 43.65847 | -79.37130 | 38851 ft | 529 kts | 107° |
| 2026-05-03 22:59 | 43.63337 | -79.27595 | 38853 ft | 530 kts | 112° |
| 2026-05-03 23:00 | 43.60663 | -79.18112 | 38849 ft | 530 kts | 111° |
| 2026-05-03 23:00 | 43.58025 | -79.08628 | 38859 ft | 529 kts | 112° |
| 2026-05-03 23:01 | 43.55351 | -78.99182 | 38860 ft | 529 kts | 112° |
| 2026-05-03 23:01 | 43.52685 | -78.89711 | 38869 ft | 530 kts | 112° |
| 2026-05-03 23:02 | 43.49994 | -78.80264 | 38872 ft | 530 kts | 112° |
| 2026-05-03 23:02 | 43.47302 | -78.70800 | 38879 ft | 531 kts | 112° |
| 2026-05-03 23:02 | 43.45958 | -78.66069 | 38731 ft | 531 kts | 116° |
| 2026-05-03 23:03 | 43.44598 | -78.61327 | 38844 ft | 535 kts | 116° |
| 2026-05-03 23:03 | 43.41839 | -78.51728 | 38880 ft | 541 kts | 116° |
| 2026-05-03 23:04 | 43.39087 | -78.42134 | 38885 ft | 538 kts | 116° |
| 2026-05-03 23:04 | 43.36324 | -78.32597 | 38875 ft | 537 kts | 116° |
| 2026-05-03 23:05 | 43.33568 | -78.23077 | 38877 ft | 536 kts | 116° |
| 2026-05-03 23:05 | 43.30828 | -78.13563 | 38873 ft | 537 kts | 113° |
| 2026-05-03 23:06 | 43.29203 | -78.03541 | 38896 ft | 544 kts | 104° |
| 2026-05-03 23:06 | 43.27767 | -77.93341 | 38882 ft | 544 kts | 105° |
| 2026-05-03 23:07 | 43.26250 | -77.83142 | 38894 ft | 547 kts | 104° |
| 2026-05-03 23:07 | 43.24779 | -77.72910 | 38898 ft | 546 kts | 105° |
| 2026-05-03 23:08 | 43.23258 | -77.62712 | 38899 ft | 545 kts | 105° |
| 2026-05-03 23:08 | 43.21758 | -77.52521 | 38887 ft | 547 kts | 105° |
| 2026-05-03 23:09 | 43.20225 | -77.42298 | 38895 ft | 548 kts | 105° |
| 2026-05-03 23:09 | 43.18694 | -77.32074 | 38897 ft | 548 kts | 105° |
| 2026-05-03 23:10 | 43.17146 | -77.21852 | 38882 ft | 548 kts | 105° |
| 2026-05-03 23:10 | 43.15590 | -77.11622 | 38883 ft | 549 kts | 105° |
| 2026-05-03 23:11 | 43.14021 | -77.01375 | 38892 ft | 549 kts | 105° |
| 2026-05-03 23:11 | 43.12448 | -76.91170 | 38893 ft | 547 kts | 105° |
| 2026-05-03 23:12 | 43.10868 | -76.80983 | 38902 ft | 548 kts | 105° |
| 2026-05-03 23:12 | 43.09273 | -76.70763 | 38902 ft | 550 kts | 105° |
| 2026-05-03 23:13 | 43.08058 | -76.60418 | 38906 ft | 551 kts | 101° |
| 2026-05-03 23:13 | 43.06964 | -76.50050 | 38890 ft | 550 kts | 102° |
| 2026-05-03 23:14 | 43.05825 | -76.39688 | 38904 ft | 552 kts | 101° |
| 2026-05-03 23:14 | 43.04705 | -76.29303 | 38902 ft | 552 kts | 102° |
| 2026-05-03 23:15 | 43.03552 | -76.18932 | 38904 ft | 551 kts | 102° |
| 2026-05-03 23:15 | 43.02408 | -76.08572 | 38892 ft | 552 kts | 102° |
| 2026-05-03 23:16 | 43.01242 | -75.98198 | 38902 ft | 553 kts | 102° |
| 2026-05-03 23:16 | 43.00072 | -75.87816 | 38903 ft | 552 kts | 102° |
| 2026-05-03 23:17 | 42.98890 | -75.77458 | 38890 ft | 552 kts | 102° |
| 2026-05-03 23:17 | 42.97702 | -75.67112 | 38903 ft | 552 kts | 102° |
| 2026-05-03 23:18 | 42.96504 | -75.56769 | 38921 ft | 552 kts | 102° |
| 2026-05-03 23:18 | 42.95297 | -75.46427 | 38918 ft | 552 kts | 102° |
| 2026-05-03 23:19 | 42.94080 | -75.36092 | 38908 ft | 551 kts | 102° |
| 2026-05-03 23:19 | 42.92855 | -75.25763 | 38908 ft | 551 kts | 102° |
| 2026-05-03 23:20 | 42.91621 | -75.15444 | 38907 ft | 551 kts | 102° |
| 2026-05-03 23:20 | 42.90376 | -75.05129 | 39089 ft | 550 kts | 101° |
| 2026-05-03 23:20 | 42.89758 | -75.00037 | 38979 ft | 538 kts | 100° |
| 2026-05-03 23:21 | 42.89157 | -74.95068 | 38898 ft | 526 kts | 100° |
| 2026-05-03 23:21 | 42.87952 | -74.85251 | 38898 ft | 528 kts | 101° |
| 2026-05-03 23:22 | 42.86089 | -74.70152 | 38912 ft | 549 kts | 101° |
| 2026-05-03 23:22 | 42.84797 | -74.59805 | 38906 ft | 555 kts | 101° |
| 2026-05-03 23:23 | 42.83498 | -74.49455 | 38898 ft | 554 kts | 101° |
| 2026-05-03 23:23 | 42.82188 | -74.39118 | 38895 ft | 554 kts | 101° |
| 2026-05-03 23:24 | 42.80872 | -74.28795 | 38895 ft | 552 kts | 101° |
| 2026-05-03 23:24 | 42.79548 | -74.18500 | 38893 ft | 552 kts | 101° |
| 2026-05-03 23:25 | 42.78218 | -74.08219 | 38893 ft | 551 kts | 101° |
| 2026-05-03 23:25 | 42.76876 | -73.97935 | 38880 ft | 553 kts | 101° |
| 2026-05-03 23:26 | 42.75523 | -73.87633 | 38883 ft | 553 kts | 101° |
| 2026-05-03 23:26 | 42.74612 | -73.77266 | 38885 ft | 553 kts | 91° |
| 2026-05-03 23:27 | 42.74628 | -73.66778 | 38890 ft | 555 kts | 90° |
| 2026-05-03 23:27 | 42.74507 | -73.56284 | 38892 ft | 556 kts | 92° |
| 2026-05-03 23:28 | 42.74436 | -73.45769 | 38878 ft | 556 kts | 91° |
| 2026-05-03 23:28 | 42.74339 | -73.35321 | 38173 ft | 549 kts | 91° |
| 2026-05-03 23:29 | 42.74274 | -73.30145 | 37338 ft | 547 kts | 91° |
| 2026-05-03 23:29 | 42.74225 | -73.24981 | 36572 ft | 543 kts | 91° |
| 2026-05-03 23:29 | 42.74179 | -73.19856 | 35833 ft | 540 kts | 90° |
| 2026-05-03 23:29 | 42.74121 | -73.14772 | 35073 ft | 537 kts | 90° |
| 2026-05-03 23:30 | 42.73911 | -73.09726 | 34297 ft | 534 kts | 97° |
| 2026-05-03 23:30 | 42.73357 | -73.04736 | 33435 ft | 532 kts | 99° |
| 2026-05-03 23:30 | 42.72729 | -72.99796 | 32508 ft | 528 kts | 99° |
| 2026-05-03 23:30 | 42.72140 | -72.94947 | 31633 ft | 525 kts | 98° |
| 2026-05-03 23:31 | 42.71602 | -72.90048 | 30721 ft | 523 kts | 97° |
| 2026-05-03 23:31 | 42.71059 | -72.85170 | 29746 ft | 522 kts | 98° |
| 2026-05-03 23:31 | 42.70476 | -72.80306 | 28690 ft | 519 kts | 98° |
| 2026-05-03 23:31 | 42.69889 | -72.75487 | 27743 ft | 513 kts | 98° |
| 2026-05-03 23:32 | 42.69332 | -72.70727 | 26842 ft | 508 kts | 97° |
| 2026-05-03 23:32 | 42.68787 | -72.66013 | 25960 ft | 502 kts | 97° |
| 2026-05-03 23:32 | 42.68233 | -72.61348 | 25153 ft | 496 kts | 97° |
| 2026-05-03 23:32 | 42.67670 | -72.56759 | 24538 ft | 488 kts | 97° |
| 2026-05-03 23:33 | 42.67115 | -72.52246 | 23899 ft | 481 kts | 97° |
| 2026-05-03 23:33 | 42.66574 | -72.47788 | 23241 ft | 474 kts | 97° |
| 2026-05-03 23:33 | 42.66043 | -72.43408 | 22540 ft | 467 kts | 97° |
| 2026-05-03 23:33 | 42.65513 | -72.39091 | 21888 ft | 459 kts | 97° |
| 2026-05-03 23:34 | 42.64996 | -72.34928 | 21275 ft | 431 kts | 97° |
| 2026-05-03 23:34 | 42.64664 | -72.32266 | 20883 ft | 413 kts | 96° |
| 2026-05-03 23:34 | 42.64207 | -72.28463 | 20342 ft | 414 kts | 96° |
| 2026-05-03 23:34 | 42.63773 | -72.24563 | 19809 ft | 410 kts | 96° |
| 2026-05-03 23:35 | 42.63350 | -72.20815 | 19278 ft | 406 kts | 96° |
| 2026-05-03 23:35 | 42.62905 | -72.17054 | 18745 ft | 401 kts | 96° |
| 2026-05-03 23:35 | 42.62461 | -72.13326 | 18226 ft | 397 kts | 96° |
| 2026-05-03 23:35 | 42.62029 | -72.09639 | 17642 ft | 393 kts | 96° |
| 2026-05-03 23:36 | 42.61605 | -72.05998 | 17125 ft | 388 kts | 96° |
| 2026-05-03 23:36 | 42.61181 | -72.02405 | 16611 ft | 385 kts | 96° |
| 2026-05-03 23:36 | 42.60737 | -71.98829 | 16075 ft | 383 kts | 97° |
| 2026-05-03 23:36 | 42.60287 | -71.95283 | 15616 ft | 379 kts | 97° |
| 2026-05-03 23:37 | 42.59850 | -71.91773 | 15203 ft | 376 kts | 96° |
| 2026-05-03 23:37 | 42.59420 | -71.88278 | 14840 ft | 375 kts | 97° |
| 2026-05-03 23:37 | 42.58988 | -71.84800 | 14485 ft | 373 kts | 97° |
| 2026-05-03 23:37 | 42.58521 | -71.81348 | 14144 ft | 371 kts | 100° |
| 2026-05-03 23:38 | 42.57935 | -71.77948 | 13823 ft | 370 kts | 99° |
| 2026-05-03 23:38 | 42.57446 | -71.74526 | 13491 ft | 369 kts | 98° |
| 2026-05-03 23:38 | 42.56943 | -71.71119 | 13153 ft | 368 kts | 99° |
| 2026-05-03 23:38 | 42.56393 | -71.67738 | 12828 ft | 366 kts | 100° |
| 2026-05-03 23:39 | 42.55839 | -71.64374 | 12517 ft | 364 kts | 99° |
| 2026-05-03 23:39 | 42.55313 | -71.61043 | 12205 ft | 357 kts | 99° |
| 2026-05-03 23:39 | 42.54719 | -71.57808 | 11886 ft | 352 kts | 105° |
| 2026-05-03 23:39 | 42.54034 | -71.54648 | 11615 ft | 348 kts | 103° |
| 2026-05-03 23:40 | 42.53430 | -71.51489 | 11300 ft | 345 kts | 102° |
| 2026-05-03 23:40 | 42.52805 | -71.48366 | 11020 ft | 343 kts | 103° |
| 2026-05-03 23:40 | 42.52152 | -71.45311 | 10736 ft | 324 kts | 104° |
| 2026-05-03 23:40 | 42.51545 | -71.42464 | 10467 ft | 311 kts | 103° |
| 2026-05-03 23:41 | 42.50960 | -71.39619 | 10214 ft | 312 kts | 103° |
| 2026-05-03 23:41 | 42.50381 | -71.36816 | 9978 ft | 306 kts | 103° |
| 2026-05-03 23:41 | 42.49814 | -71.34052 | 9736 ft | 302 kts | 102° |
| 2026-05-03 23:41 | 42.49278 | -71.31324 | 9465 ft | 296 kts | 102° |
| 2026-05-03 23:42 | 42.48764 | -71.28724 | 9206 ft | 283 kts | 102° |
| 2026-05-03 23:42 | 42.48251 | -71.26152 | 8955 ft | 278 kts | 102° |
| 2026-05-03 23:42 | 42.47744 | -71.23632 | 8735 ft | 277 kts | 102° |
| 2026-05-03 23:42 | 42.47245 | -71.21143 | 8599 ft | 273 kts | 102° |
| 2026-05-03 23:43 | 42.46746 | -71.18652 | 8413 ft | 275 kts | 102° |
| 2026-05-03 23:43 | 42.46245 | -71.16150 | 8221 ft | 275 kts | 102° |
| 2026-05-03 23:43 | 42.45963 | -71.13616 | 7989 ft | 272 kts | 92° |
| 2026-05-03 23:43 | 42.45739 | -71.11066 | 7780 ft | 272 kts | 94° |
| 2026-05-03 23:44 | 42.45492 | -71.08535 | 7574 ft | 270 kts | 94° |
| 2026-05-03 23:44 | 42.45259 | -71.06015 | 7364 ft | 269 kts | 93° |
| 2026-05-03 23:44 | 42.45181 | -71.03492 | 7141 ft | 267 kts | 86° |
| 2026-05-03 23:44 | 42.45179 | -71.00995 | 6999 ft | 260 kts | 86° |
| 2026-05-03 23:45 | 42.45173 | -70.98632 | 6988 ft | 246 kts | 86° |
| 2026-05-03 23:45 | 42.45164 | -70.96320 | 6982 ft | 245 kts | 86° |
| 2026-05-03 23:45 | 42.45159 | -70.94018 | 6989 ft | 244 kts | 85° |
| 2026-05-03 23:45 | 42.45231 | -70.91727 | 6968 ft | 244 kts | 82° |
| 2026-05-03 23:46 | 42.45345 | -70.89406 | 6826 ft | 247 kts | 81° |
| 2026-05-03 23:46 | 42.45477 | -70.87098 | 6660 ft | 244 kts | 81° |
| 2026-05-03 23:46 | 42.45608 | -70.84827 | 6505 ft | 241 kts | 81° |
| 2026-05-03 23:46 | 42.45738 | -70.82599 | 6350 ft | 240 kts | 81° |
| 2026-05-03 23:47 | 42.45870 | -70.80342 | 6199 ft | 241 kts | 81° |
| 2026-05-03 23:47 | 42.46003 | -70.78084 | 6034 ft | 240 kts | 81° |
| 2026-05-03 23:47 | 42.46136 | -70.75832 | 5870 ft | 240 kts | 81° |
| 2026-05-03 23:47 | 42.46268 | -70.73589 | 5709 ft | 239 kts | 81° |
| 2026-05-03 23:48 | 42.46421 | -70.71349 | 5542 ft | 238 kts | 78° |
| 2026-05-03 23:48 | 42.46672 | -70.69136 | 5382 ft | 237 kts | 76° |
| 2026-05-03 23:48 | 42.46791 | -70.66916 | 5132 ft | 242 kts | 94° |
| 2026-05-03 23:48 | 42.46029 | -70.64901 | 4774 ft | 242 kts | 135° |
| 2026-05-03 23:49 | 42.44582 | -70.63909 | 4453 ft | 231 kts | 176° |
| 2026-05-03 23:49 | 42.43094 | -70.64283 | 4082 ft | 211 kts | 217° |
| 2026-05-03 23:49 | 42.42226 | -70.65694 | 3951 ft | 189 kts | 250° |
| 2026-05-03 23:49 | 42.41729 | -70.67354 | 3980 ft | 193 kts | 255° |
| 2026-05-03 23:50 | 42.41268 | -70.69066 | 3879 ft | 193 kts | 256° |
| 2026-05-03 23:50 | 42.40807 | -70.70768 | 3775 ft | 192 kts | 255° |
| 2026-05-03 23:50 | 42.40346 | -70.72471 | 3636 ft | 193 kts | 256° |
| 2026-05-03 23:50 | 42.39885 | -70.74183 | 3494 ft | 193 kts | 256° |
| 2026-05-03 23:51 | 42.39484 | -70.75904 | 3343 ft | 188 kts | 259° |
| 2026-05-03 23:51 | 42.39160 | -70.77543 | 2899 ft | 176 kts | 263° |
| 2026-05-03 23:51 | 42.38902 | -70.79140 | 2334 ft | 174 kts | 260° |
| 2026-05-03 23:51 | 42.38605 | -70.80711 | 1782 ft | 171 kts | 264° |
| 2026-05-03 23:52 | 42.38398 | -70.82272 | 1372 ft | 167 kts | 265° |
| 2026-05-03 23:52 | 42.38195 | -70.83832 | 1363 ft | 171 kts | 265° |
| 2026-05-03 23:52 | 42.38170 | -70.85502 | 1854 ft | 181 kts | 279° |
| 2026-05-03 23:52 | 42.38045 | -70.87147 | 1624 ft | 181 kts | 257° |
| 2026-05-03 23:53 | 42.37634 | -70.88611 | 1244 ft | 190 kts | 253° |
| 2026-05-03 23:53 | 42.37631 | -70.88622 | 1243 ft | 190 kts | 253° |
| 2026-05-03 23:53 | 42.37232 | -70.90441 | 992 ft | 198 kts | 257° |
| 2026-05-03 23:53 | 42.36883 | -70.92167 | 953 ft | 186 kts | 259° |
| 2026-05-03 23:54 | 42.36544 | -70.93849 | 1017 ft | 182 kts | 256° |
| 2026-05-03 23:54 | 42.36067 | -70.95399 | 1088 ft | 177 kts | 240° |
| 2026-05-03 23:54 | 42.35096 | -70.96391 | 1328 ft | 194 kts | 198° |
| 2026-05-03 23:54 | 42.33669 | -70.96153 | 1836 ft | 230 kts | 150° |
| 2026-05-03 23:55 | 42.32512 | -70.94531 | 2598 ft | 249 kts | 128° |
| 2026-05-03 23:55 | 42.31228 | -70.92798 | 3217 ft | 275 kts | 138° |
| 2026-05-03 23:55 | 42.30093 | -70.90507 | 3294 ft | 323 kts | 109° |
| 2026-05-03 23:55 | 42.29798 | -70.87438 | 3228 ft | 320 kts | 85° |
| 2026-05-03 23:56 | 42.30062 | -70.84547 | 3148 ft | 291 kts | 77° |
| 2026-05-03 23:56 | 42.30412 | -70.82004 | 3017 ft | 261 kts | 75° |
| 2026-05-03 23:56 | 42.30743 | -70.79708 | 2837 ft | 241 kts | 75° |
| 2026-05-03 23:56 | 42.31055 | -70.77513 | 2657 ft | 236 kts | 75° |
| 2026-05-03 23:57 | 42.31189 | -70.76570 | 2596 ft | 240 kts | 75° |
| 2026-05-03 23:57 | 42.31292 | -70.75845 | 2556 ft | 239 kts | 75° |
| 2026-05-03 23:57 | 42.31598 | -70.73690 | 2481 ft | 233 kts | 75° |
| 2026-05-03 23:57 | 42.31903 | -70.71534 | 2394 ft | 233 kts | 74° |
| 2026-05-03 23:58 | 42.32484 | -70.69548 | 2174 ft | 226 kts | 49° |
| 2026-05-03 23:58 | 42.33597 | -70.68214 | 1982 ft | 205 kts | 30° |
| 2026-05-03 23:58 | 42.34846 | -70.67475 | 1907 ft | 193 kts | 3° |
| 2026-05-03 23:58 | 42.36163 | -70.67310 | 1988 ft | 193 kts | 358° |
| 2026-05-03 23:59 | 42.37479 | -70.67275 | 1991 ft | 185 kts | 354° |
| 2026-05-03 23:59 | 42.38719 | -70.67410 | 1909 ft | 173 kts | 339° |
| 2026-05-03 23:59 | 42.39546 | -70.68507 | 1844 ft | 169 kts | 297° |
| 2026-05-03 23:59 | 42.39910 | -70.70003 | 1973 ft | 168 kts | 287° |
| 2026-05-04 00:00 | 42.39893 | -70.71627 | 1992 ft | 171 kts | 269° |
| 2026-05-04 00:00 | 42.40027 | -70.73227 | 1939 ft | 173 kts | 283° |
| 2026-05-04 00:00 | 42.40138 | -70.74884 | 1757 ft | 178 kts | 273° |
| 2026-05-04 00:00 | 42.39954 | -70.76499 | 1849 ft | 171 kts | 262° |
| 2026-05-04 00:01 | 42.39670 | -70.78087 | 2163 ft | 177 kts | 261° |
| 2026-05-04 00:01 | 42.39380 | -70.79687 | 2467 ft | 173 kts | 262° |
| 2026-05-04 00:01 | 42.39113 | -70.81189 | 2762 ft | 156 kts | 262° |
| 2026-05-04 00:01 | 42.38872 | -70.82560 | 2934 ft | 144 kts | 262° |
| 2026-05-04 00:02 | 42.38631 | -70.83888 | 2738 ft | 147 kts | 261° |
| 2026-05-04 00:02 | 42.38323 | -70.85178 | 2331 ft | 142 kts | 257° |
| 2026-05-04 00:02 | 42.38015 | -70.86446 | 1926 ft | 140 kts | 262° |
| 2026-05-04 00:02 | 42.37795 | -70.87724 | 1532 ft | 141 kts | 264° |
| 2026-05-04 00:03 | 42.37601 | -70.89050 | 1309 ft | 143 kts | 263° |
| 2026-05-04 00:03 | 42.37426 | -70.90377 | 1230 ft | 148 kts | 264° |
| 2026-05-04 00:03 | 42.37225 | -70.91640 | 1123 ft | 127 kts | 263° |
| 2026-05-04 00:03 | 42.37031 | -70.92796 | 910 ft | 137 kts | 262° |
| 2026-05-04 00:04 | 42.36811 | -70.94089 | 861 ft | 144 kts | 262° |
| 2026-05-04 00:04 | 42.36609 | -70.95388 | 629 ft | 139 kts | 262° |
| 2026-05-04 00:04 | 42.36383 | -70.96656 | 414 ft | 137 kts | 261° |
| 2026-05-04 00:04 | 42.36161 | -70.97865 | 220 ft | 128 kts | 264° |
| 2026-05-04 00:05 | 42.35973 | -70.98983 | 46 ft | 114 kts | 264° |
| 2026-05-04 00:05 | 42.35816 | -70.99920 | 37 ft | 85 kts | 256° |
| 2026-05-04 00:05 | 42.35702 | -71.00589 | 29 ft | 67 kts | 256° |
| 2026-05-04 00:05 | 42.35636 | -71.01071 | 30 ft | 33 kts | 281° |
| 2026-05-04 00:06 | 42.35714 | -71.01252 | 29 ft | 19 kts | 307° |
| 2026-05-04 00:06 | 42.35764 | -71.01391 | 35 ft | 14 kts | 290° |
| 2026-05-04 00:06 | 42.35796 | -71.01507 | 36 ft | 13 kts | 289° |
| 2026-05-04 00:06 | 42.35822 | -71.01621 | 35 ft | 11 kts | 292° |
| 2026-05-04 00:07 | 42.35845 | -71.01649 | 35 ft | 3 kts | 343° |
| 2026-05-04 00:07 | 42.35910 | -71.01634 | 36 ft | 19 kts | 18° |
| 2026-05-04 00:07 | 42.36020 | -71.01586 | 34 ft | 10 kts | 8° |
| 2026-05-04 00:07 | 42.36059 | -71.01602 | 33 ft | 4 kts | 325° |
| 2026-05-04 00:08 | 42.36094 | -71.01650 | 32 ft | 0 kts | 302° |